^^
Meteo Knjazevac Station Historical Data
Daily Summary for May 21, 2022 Units:  English    Metric   Both
Daily Weekly Monthly Yearly Custom
  High: Low: Average:
Temperature: 45.6 °F 38.3 °F 41.4 °F
Dew Point: 45.3 °F 38 °F 41.2 °F
Humidity: 99% 99% 99%
Wind Speed: 19.1mph 3mph 8.2mph
Wind Gust: 21mph - -
Wind- - SW
Pressure: 29.83 in 29.69 in -
Precipitation: 0.49 in    
Historical Graphs
 
 
Tabular Data for May 21, 2022
Time Temperature Dew Point Pressure Wind Wind Speed Wind Gust Humidity Rainfall Rate (Hourly) solar Conditions
00:04 45.6 °F 45.3 °F 29.74 in WSW 7.1 mph 7 mph 99% 0.09 in 0 W/m2
00:09 45.5 °F 45.2 °F 29.75 in West 8.6 mph 8 mph 99% 0.09 in 0 W/m2
00:14 45.4 °F 45.1 °F 29.75 in West 9.8 mph 9 mph 99% 0.10 in 0 W/m2
00:19 45.1 °F 44.9 °F 29.75 in West 11 mph 14 mph 99% 0.11 in 0 W/m2
00:24 45 °F 44.7 °F 29.74 in West 6.3 mph 14 mph 99% 0.13 in 0 W/m2
00:29 45 °F 44.7 °F 29.74 in West 5.3 mph 7 mph 99% 0.14 in 0 W/m2
00:34 44.9 °F 44.6 °F 29.74 in West 7.5 mph 8 mph 99% 0.13 in 0 W/m2
00:39 44.8 °F 44.5 °F 29.74 in West 8.2 mph 8 mph 99% 0.13 in 0 W/m2
00:44 44.6 °F 44.3 °F 29.74 in West 7.5 mph 9 mph 99% 0.13 in 0 W/m2
00:49 44.6 °F 44.3 °F 29.73 in WNW 3.4 mph 8 mph 99% 0.14 in 0 W/m2
00:54 44.5 °F 44.2 °F 29.72 in NNE 3.5 mph 4 mph 99% 0.14 in 0 W/m2
00:59 44.4 °F 44.2 °F 29.72 in NNE 4.2 mph 5 mph 99% 0.14 in 0 W/m2
01:04 44.4 °F 44.2 °F 29.71 in NE 4.3 mph 5 mph 99% 0.14 in 0 W/m2
01:09 44.4 °F 44.2 °F 29.71 in NE 4 mph 5 mph 99% 0.13 in 0 W/m2
01:14 44.4 °F 44.2 °F 29.71 in NE 4.3 mph 5 mph 99% 0.12 in 0 W/m2
01:19 44.4 °F 44.2 °F 29.70 in NE 3.7 mph 5 mph 99% 0.11 in 0 W/m2
01:24 44.4 °F 44.2 °F 29.70 in NE 5.3 mph 5 mph 99% 0.10 in 0 W/m2
01:29 44.4 °F 44.2 °F 29.70 in NE 6.3 mph 7 mph 99% 0.08 in 0 W/m2
01:34 44.4 °F 44.2 °F 29.69 in NE 4.4 mph 7 mph 99% 0.05 in 0 W/m2
01:39 44.5 °F 44.2 °F 29.69 in NE 6.1 mph 5.1 mph 99% 0.04 in 0 W/m2
01:44 44.5 °F 44.3 °F 29.69 in North 6.2 mph 8 mph 99% 0.04 in 0 W/m2
01:49 44.4 °F 44.2 °F 29.69 in NNW 7.2 mph 7 mph 99% 0.02 in 0 W/m2
01:54 44.4 °F 44.2 °F 29.70 in NNW 7.6 mph 9 mph 99% 0.01 in 0 W/m2
01:59 44.3 °F 44.1 °F 29.70 in NW 7.8 mph 8 mph 99% 0.01 in 0 W/m2
02:04 44.3 °F 44.1 °F 29.70 in NW 9 mph 8 mph 99% 0.01 in 0 W/m2
02:09 44.3 °F 44.1 °F 29.70 in WNW 16.3 mph 13.6 mph 99% 0.02 in 0 W/m2
02:14 44.1 °F 43.8 °F 29.70 in WSW 19.1 mph 21 mph 99% 0.03 in 0 W/m2
02:19 43.5 °F 43.2 °F 29.71 in WSW 16.5 mph 21 mph 99% 0.04 in 0 W/m2
02:24 43.3 °F 43 °F 29.71 in WSW 14.8 mph 18 mph 99% 0.05 in 0 W/m2
02:29 43.1 °F 42.8 °F 29.71 in WSW 15.7 mph 18 mph 99% 0.07 in 0 W/m2
02:34 42.9 °F 42.6 °F 29.71 in WSW 14.5 mph 17 mph 99% 0.08 in 0 W/m2
02:39 42.7 °F 42.5 °F 29.70 in WSW 10 mph 16 mph 99% 0.10 in 0 W/m2
02:44 42.6 °F 42.3 °F 29.70 in WSW 9.8 mph 10.1 mph 99% 0.14 in 0 W/m2
02:49 42.4 °F 42.2 °F 29.70 in West 13.7 mph 12.7 mph 99% 0.16 in 0 W/m2
02:54 42.4 °F 42.2 °F 29.70 in West 14.6 mph 16 mph 99% 0.17 in 0 W/m2
02:59 42.3 °F 42 °F 29.70 in West 13.1 mph 15 mph 99% 0.16 in 0 W/m2
03:04 42.3 °F 42 °F 29.70 in SW 15.7 mph 14 mph 99% 0.16 in 0 W/m2
03:09 42.3 °F 42 °F 29.70 in SSW 12.2 mph 21 mph 99% 0.16 in 0 W/m2
03:14 42.2 °F 41.9 °F 29.70 in SSW 7.8 mph 16 mph 99% 0.15 in 0 W/m2
03:19 42.1 °F 41.8 °F 29.71 in SSW 6.9 mph 8 mph 99% 0.14 in 0 W/m2
03:24 42 °F 41.7 °F 29.71 in SW 7.4 mph 8 mph 99% 0.12 in 0 W/m2
03:29 42 °F 41.7 °F 29.71 in SW 7.2 mph 8 mph 99% 0.11 in 0 W/m2
03:34 42 °F 41.7 °F 29.71 in SW 7.6 mph 8 mph 99% 0.10 in 0 W/m2
03:39 42 °F 41.7 °F 29.71 in SW 7 mph 8 mph 99% 0.08 in 0 W/m2
03:44 41.9 °F 41.6 °F 29.71 in SW 7.5 mph 8 mph 99% 0.06 in 0 W/m2
03:49 41.9 °F 41.6 °F 29.71 in SW 5.7 mph 8 mph 99% 0.02 in 0 W/m2
03:54 41.9 °F 41.6 °F 29.71 in SW 4.8 mph 6 mph 99% 0.01 in 0 W/m2
03:59 41.9 °F 41.6 °F 29.71 in SW 5 mph 6 mph 99% 0.00 in 0 W/m2
04:04 41.9 °F 41.6 °F 29.71 in SW 4.4 mph 6 mph 99% 0.01 in 0 W/m2
04:09 41.9 °F 41.6 °F 29.71 in SW 4.1 mph 5 mph 99% 0.01 in 0 W/m2
04:14 41.9 °F 41.6 °F 29.71 in SW 4.4 mph 5 mph 99% 0.01 in 0 W/m2
04:19 41.9 °F 41.6 °F 29.71 in SW 5.2 mph 5 mph 99% 0.01 in 0 W/m2
04:24 41.9 °F 41.6 °F 29.71 in SW 5.3 mph 6 mph 99% 0.01 in 0 W/m2
04:29 41.9 °F 41.6 °F 29.71 in SW 5.4 mph 6 mph 99% 0.01 in 0 W/m2
04:34 41.9 °F 41.6 °F 29.71 in SW 5.1 mph 6 mph 99% 0.01 in 0 W/m2
04:39 41.9 °F 41.6 °F 29.71 in SW 4.1 mph 6 mph 99% 0.01 in 0 W/m2
04:44 42 °F 41.7 °F 29.71 in SW 3.8 mph 5 mph 99% 0.01 in 0 W/m2
04:49 42 °F 41.7 °F 29.71 in SW 3.5 mph 5 mph 99% 0.01 in 0 W/m2
04:54 42.1 °F 41.8 °F 29.72 in SW 3.3 mph 4 mph 99% 0.01 in 0 W/m2
04:59 42.1 °F 41.8 °F 29.72 in SSW 3.6 mph 3 mph 99% 0.01 in 0 W/m2
05:04 42 °F 41.7 °F 29.72 in SW 4.2 mph 6 mph 99% 0.01 in 0 W/m2
05:09 42 °F 41.7 °F 29.72 in SW 4 mph 6 mph 99% 0.00 in 0 W/m2
05:14 42.1 °F 41.8 °F 29.72 in SSW 3 mph 5 mph 99% 0.00 in 0 W/m2
05:19 42 °F 41.7 °F 29.72 in SW 3.6 mph 4 mph 99% 0.00 in 0 W/m2
05:24 41.9 °F 41.6 °F 29.73 in SW 5 mph 4 mph 99% 0.00 in 0 W/m2
05:29 41.9 °F 41.6 °F 29.73 in SW 5.5 mph 6 mph 99% 0.00 in 0 W/m2
05:34 41.9 °F 41.6 °F 29.73 in SW 6.4 mph 7 mph 99% 0.00 in 0 W/m2
05:39 41.8 °F 41.6 °F 29.73 in SW 8.3 mph 8 mph 99% 0.00 in 0 W/m2
05:44 41.6 °F 41.4 °F 29.73 in SW 7.6 mph 9 mph 99% 0.00 in 0 W/m2
05:49 41.5 °F 41.3 °F 29.73 in SW 7.9 mph 8 mph 99% 0.00 in 0 W/m2
05:54 41.4 °F 41.1 °F 29.73 in SW 7.5 mph 8 mph 99% 0.00 in 0 W/m2
05:59 41.2 °F 40.9 °F 29.73 in SW 7.3 mph 8 mph 99% 0.00 in 0 W/m2
06:04 41 °F 40.7 °F 29.73 in SW 7.7 mph 8 mph 99% 0.00 in 0 W/m2
06:09 40.9 °F 40.6 °F 29.73 in SW 8.1 mph 9 mph 99% 0.00 in 0 W/m2
06:14 40.7 °F 40.5 °F 29.74 in SW 7.9 mph 9 mph 99% 0.00 in 0 W/m2
06:19 40.6 °F 40.3 °F 29.74 in SW 9.1 mph 11 mph 99% 0.00 in 0 W/m2
06:24 40.5 °F 40.2 °F 29.74 in SW 9.1 mph 11 mph 99% 0.00 in 0 W/m2
06:29 40.3 °F 40 °F 29.74 in SW 9.3 mph 12 mph 99% 0.00 in 0 W/m2
06:34 40.2 °F 39.9 °F 29.75 in SW 9.7 mph 11 mph 99% 0.16 in 0 W/m2
06:39 40.1 °F 39.8 °F 29.75 in SW 9.1 mph 13 mph 99% 0.16 in 1 W/m2
06:44 39.9 °F 39.7 °F 29.75 in SW 8.6 mph 10 mph 99% 0.16 in 1 W/m2
06:49 39.7 °F 39.5 °F 29.75 in SW 7.4 mph 9 mph 99% 0.16 in 2 W/m2
06:54 39.7 °F 39.5 °F 29.75 in SW 10.2 mph 9 mph 99% 0.16 in 4 W/m2
06:59 39.6 °F 39.3 °F 29.75 in SW 10.7 mph 14 mph 99% 0.16 in 7 W/m2
07:04 39.4 °F 39.1 °F 29.76 in SW 10.7 mph 13 mph 99% 0.16 in 8 W/m2
07:09 39.3 °F 39 °F 29.76 in SW 9.9 mph 13 mph 99% 0.16 in 10 W/m2
07:14 39.2 °F 38.9 °F 29.77 in SW 9 mph 12 mph 99% 0.16 in 14 W/m2
07:19 39 °F 38.8 °F 29.77 in SW 10.6 mph 12 mph 99% 0.16 in 15 W/m2
07:24 39 °F 38.8 °F 29.77 in SW 9.6 mph 13 mph 99% 0.16 in 19 W/m2
07:29 38.8 °F 38.6 °F 29.78 in SW 9.9 mph 12 mph 99% 0.16 in 19 W/m2
07:34 38.8 °F 38.6 °F 29.78 in SW 9.8 mph 11 mph 99% 0.16 in 21 W/m2
07:39 38.8 °F 38.5 °F 29.78 in SW 9 mph 11 mph 99% 0.01 in 25 W/m2
07:44 38.7 °F 38.4 °F 29.78 in SW 11.5 mph 12 mph 99% 0.01 in 29 W/m2
07:49 38.5 °F 38.2 °F 29.79 in SW 11.1 mph 14 mph 99% 0.01 in 31 W/m2
07:54 38.5 °F 38.2 °F 29.79 in SW 10.9 mph 12 mph 99% 0.01 in 31 W/m2
07:59 38.3 °F 38 °F 29.79 in SW 11.6 mph 13 mph 99% 0.01 in 31 W/m2
08:04 38.3 °F 38 °F 29.79 in SW 8.8 mph 13 mph 99% 0.01 in 33 W/m2
08:09 38.3 °F 38 °F 29.79 in SW 10.5 mph 9 mph 99% 0.01 in 34 W/m2
08:14 38.3 °F 38 °F 29.79 in SW 11.1 mph 13 mph 99% 0.01 in 39 W/m2
08:19 38.3 °F 38 °F 29.80 in SW 11.8 mph 15 mph 99% 0.01 in 66 W/m2
08:24 38.3 °F 38 °F 29.80 in SW 10.9 mph 15 mph 99% 0.01 in 98 W/m2
08:29 38.3 °F 38 °F 29.80 in SW 10.5 mph 12 mph 99% 0.01 in 107 W/m2
08:34 38.4 °F 38.1 °F 29.80 in SW 9.5 mph 13 mph 99% 0.01 in 129 W/m2
08:39 38.5 °F 38.2 °F 29.80 in SW 10.1 mph 11 mph 99% 0.01 in 127 W/m2
08:44 38.5 °F 38.2 °F 29.80 in SW 9.8 mph 13 mph 99% 0.01 in 101 W/m2
08:49 38.7 °F 38.3 °F 29.81 in SW 8.5 mph 11 mph 99% 0.00 in 93 W/m2
08:54 38.7 °F 38.4 °F 29.81 in SW 5.9 mph 11 mph 99% 0.00 in 74 W/m2
08:59 38.7 °F 38.5 °F 29.81 in SW 5.9 mph 6 mph 99% 0.00 in 60 W/m2
09:04 38.8 °F 38.5 °F 29.81 in SW 6.8 mph 8 mph 99% 0.00 in 60 W/m2
09:09 38.8 °F 38.6 °F 29.81 in SW 7.4 mph 8 mph 99% 0.00 in 60 W/m2
09:14 38.9 °F 38.7 °F 29.81 in SW 7.2 mph 10 mph 99% 0.00 in 76 W/m2
09:19 39 °F 38.8 °F 29.81 in SW 9.2 mph 10 mph 99% 0.00 in 122 W/m2
09:24 39 °F 38.8 °F 29.81 in SW 8 mph 10 mph 99% 0.00 in 196 W/m2
09:29 39.2 °F 38.9 °F 29.81 in SW 9.1 mph 9 mph 99% 0.00 in 196 W/m2
09:34 39.3 °F 39 °F 29.81 in SW 9.6 mph 10 mph 99% 0.00 in 182 W/m2
09:39 39.6 °F 39.3 °F 29.82 in SW 9.4 mph 11 mph 99% 0.00 in 181 W/m2
09:44 39.6 °F 39.4 °F 29.82 in SW 10.6 mph 12 mph 99% 0.00 in 159 W/m2
09:49 39.7 °F 39.5 °F 29.83 in SW 8.4 mph 12 mph 99% 0.00 in 105 W/m2
09:54 39.7 °F 39.5 °F 29.83 in SW 7.9 mph 10 mph 99% 0.00 in 80 W/m2
09:59 39.7 °F 39.5 °F 29.83 in SW 5.9 mph 8 mph 99% 0.00 in 99 W/m2
10:04 39.9 °F 39.7 °F 29.83 in SW 8.9 mph 9 mph 99% 0.00 in 107 W/m2
10:09 39.9 °F 39.7 °F 29.83 in SW 8.6 mph 12 mph 99% 0.00 in 120 W/m2
10:14 40 °F 39.8 °F 29.83 in SW 8.1 mph 10 mph 99% 0.00 in 125 W/m2
10:19 40.1 °F 39.8 °F 29.83 in WSW 6.6 mph 9 mph 99% 0.00 in 134 W/m2
10:24 40.2 °F 39.9 °F 29.83 in WSW 7.9 mph 8 mph 99% 0.00 in 187 W/m2
10:29 40.4 °F 40.1 °F 29.83 in WSW 8.8 mph 10 mph 99% 0.00 in 187 W/m2
10:34 40.6 °F 40.3 °F 29.83 in WSW 8.6 mph 9 mph 99% 0.00 in 172 W/m2
10:39 40.6 °F 40.4 °F 29.83 in West 8.4 mph 12 mph 99% 0.00 in 206 W/m2
10:44 40.8 °F 40.6 °F 29.83 in West 8.5 mph 9 mph 99% 0.00 in 213 W/m2
10:49 41 °F 40.7 °F 29.83 in West 8.7 mph 10 mph 99% 0.00 in 222 W/m2
10:54 41.1 °F 40.8 °F 29.83 in WSW 8.9 mph 9 mph 99% 0.00 in 190 W/m2
10:59 41.3 °F 41 °F 29.83 in WSW 8.9 mph 9 mph 99% 0.00 in 292 W/m2
Knjazevac, Serbia
Compliments of Weather Underground - 2 mb